CMT3 weather

Foothills Hospital McCaig Tower Helipad
Calgary, Alberta, Canada

Public forecast

Using degrees Celsius for public forecast. Weather courtesy of forecast.io.

Closest aviation weather report (METAR) to Foothills Hospital McCaig Tower Helipad

Closest report is Calgary International Airport, 5.2 nm (9.7 km) NE. Retrieved 2020/01/26 04:00 UTC (49 minutes ago):

CYYC 260400Z 21006KT 190V280 15SM FEW190 00/M08 A2991 RMK AS1 AS TR SLP169

Closest aviation forecast (TAF) to Foothills Hospital McCaig Tower Helipad

Closest forecast is Calgary International Airport, 5.2 nm (9.7 km) NE. Retrieved 2020-01-26 03:45 UTC (1 hour ago):

TAF CYYC 260242Z 2603/2624 VRB03KT P6SM SKC BECMG 2615/2617 18008KT SCT140 BKN220 RMK NXT FCST BY 260600Z